Humidity-temperature Sensor

Selected Measurement Type: Relative Humidity

 
Relative Humidity [%]     6 entries per hour
Showing data from 10/8/2014 (00:00:00 Z) to 10/1/2014 (00:01:00 Z)
Previous Next [ Day | 3-Days | 7-Days ]
First Last
Prev [ Day | 3-Days | 7-Days ] Next
First Last

Start Time:     :
End Time:     :     
Time (in GMT) :00 :50 :40 :30 :20 :10
Previous Next [ Day | 3-Days | 7-Days ]
First Last
Prev [ Day | 3-Days | 7-Days ] Next
First Last


123 => good data
MM => data is determined as missing
-- => data not received/configured
Back to Top Back to Top
10/8/2014 00:00 to 23:10 83.87 83.28 82.49 82.68 82.62 82.51
10/7/2014 23:00 to 22:10 83.42 83.55 83.28 83.68 84.25 83.55
10/7/2014 22:00 to 21:10 83.02 83.34 83.40 84.36 84.67 84.55
10/7/2014 21:00 to 20:10 83.83 83.42 83.32 82.89 82.72 82.26
10/7/2014 20:00 to 19:10 82.53 83.42 83.11 83.17 83.89 83.93
10/7/2014 19:00 to 18:10 83.66 83.23 83.30 83.19 82.92 83.08
10/7/2014 18:00 to 17:10 82.47 81.90 82.62 82.89 82.64 82.70
10/7/2014 17:00 to 16:10 83.55 83.17 83.47 82.85 83.30 83.13
10/7/2014 16:00 to 15:10 83.30 83.49 83.08 82.26 82.22 83.51
10/7/2014 15:00 to 14:10 83.49 83.19 83.68 83.34 82.75 82.79
10/7/2014 14:00 to 13:10 82.89 83.06 83.13 83.21 83.47 84.12
10/7/2014 13:00 to 12:10 84.19 84.04 84.40 84.04 84.40 84.91
10/7/2014 12:00 to 11:10 85.23 85.48 85.54 85.52 85.12 84.99
10/7/2014 11:00 to 10:10 85.10 85.27 85.63 86.12 86.41 86.37
10/7/2014 10:00 to 9:10 86.29 86.26 86.62 86.45 85.63 85.50
10/7/2014 09:00 to 8:10 85.29 85.46 85.40 85.23 85.50 85.50
10/7/2014 08:00 to 7:10 85.16 84.61 83.91 83.85 84.02 84.67
10/7/2014 07:00 to 6:10 84.80 84.93 85.18 85.48 86.01 85.25
10/7/2014 06:00 to 5:10 85.01 84.57 84.48 83.93 84.19 84.29
10/7/2014 05:00 to 4:10 84.50 84.53 84.50 83.97 83.89 84.21
10/7/2014 04:00 to 3:10 84.59 84.31 83.89 83.53 83.13 82.96
10/7/2014 03:00 to 2:10 82.66 82.51 82.51 82.79 82.77 82.66
10/7/2014 02:00 to 1:10 82.47 82.94 82.22 81.77 81.77 81.41
10/7/2014 01:00 to 0:10 81.20 80.56 81.56 80.73 81.33 81.62
10/7/2014 00:00 to 23:10 81.35 81.81 82.28 82.34 82.36 82.34
10/6/2014 23:00 to 22:10 82.89 82.89 83.57 83.06 82.00 81.77
10/6/2014 22:00 to 21:10 82.41 83.28 83.38 82.87 82.72 82.58
10/6/2014 21:00 to 20:10 82.32 82.17 82.26 81.83 82.19 81.77
10/6/2014 20:00 to 19:10 81.47 81.98 81.56 81.18 81.54 81.69
10/6/2014 19:00 to 18:10 81.43 80.75 80.63 81.11 82.11 82.41
10/6/2014 18:00 to 17:10 82.39 81.83 81.64 81.58 81.52 81.26
10/6/2014 17:00 to 16:10 81.03 80.58 80.56 79.80 79.50 79.33
10/6/2014 16:00 to 15:10 79.48 79.80 80.12 81.22 81.77 83.11
10/6/2014 15:00 to 14:10 81.33 80.92 81.90 83.47 83.76 83.97
10/6/2014 14:00 to 13:10 84.17 83.66 83.59 83.78 83.70 84.50
10/6/2014 13:00 to 12:10 -- -- -- -- -- --
10/6/2014 12:00 to 11:10 83.59 83.59 83.91 83.72 84.10 84.55
10/6/2014 11:00 to 10:10 84.53 84.53 84.65 84.48 84.36 84.72
10/6/2014 10:00 to 9:10 84.34 84.38 84.34 84.14 84.48 84.78
10/6/2014 09:00 to 8:10 84.61 84.82 84.84 85.25 85.25 84.78
10/6/2014 08:00 to 7:10 84.70 84.48 84.67 84.23 83.93 84.31
10/6/2014 07:00 to 6:10 84.23 84.55 84.42 84.21 83.68 83.44
10/6/2014 06:00 to 5:10 83.49 83.34 83.30 83.42 83.68 83.49
10/6/2014 05:00 to 4:10 83.61 83.70 83.51 83.89 84.23 84.21
10/6/2014 04:00 to 3:10 84.21 84.00 83.34 82.94 82.83 82.79
10/6/2014 03:00 to 2:10 82.39 82.51 82.79 82.79 82.94 82.53
10/6/2014 02:00 to 1:10 82.19 81.69 81.05 80.86 81.73 81.88
10/6/2014 01:00 to 0:10 80.82 80.65 81.07 81.58 81.83 82.15
10/6/2014 00:00 to 23:10 82.30 82.05 82.05 81.64 81.92 82.15
10/5/2014 23:00 to 22:10 82.39 82.51 82.24 82.00 82.43 82.36
10/5/2014 22:00 to 21:10 82.22 82.34 82.34 82.64 82.02 82.11
10/5/2014 21:00 to 20:10 82.39 82.09 82.17 82.11 81.60 81.30
10/5/2014 20:00 to 19:10 81.22 80.71 81.01 81.71 82.00 82.24
10/5/2014 19:00 to 18:10 83.08 82.98 82.85 82.89 82.28 82.49
10/5/2014 18:00 to 17:10 82.51 82.26 82.49 83.02 82.66 82.98
10/5/2014 17:00 to 16:10 82.53 82.32 82.34 82.24 82.19 81.83
10/5/2014 16:00 to 15:10 81.71 81.58 81.69 81.79 82.47 81.54
10/5/2014 15:00 to 14:10 81.92 82.41 83.04 83.74 84.08 84.12
10/5/2014 14:00 to 13:10 84.04 83.70 83.83 83.74 83.68 83.72
10/5/2014 13:00 to 12:10 83.83 83.47 83.38 83.44 83.40 83.19
10/5/2014 12:00 to 11:10 82.85 82.92 82.62 83.02 82.39 82.60
10/5/2014 11:00 to 10:10 82.39 81.77 81.62 81.83 82.58 82.58
10/5/2014 10:00 to 9:10 82.13 81.30 81.22 80.77 80.31 80.46
10/5/2014 09:00 to 8:10 80.80 80.75 80.77 80.96 80.86 80.65
10/5/2014 08:00 to 7:10 80.75 81.33 81.54 82.19 82.68 82.22
10/5/2014 07:00 to 6:10 82.55 81.54 81.49 80.88 80.35 79.57
10/5/2014 06:00 to 5:10 79.74 80.29 80.20 80.16 79.31 79.18
10/5/2014 05:00 to 4:10 79.46 79.97 79.25 79.35 79.76 79.78
10/5/2014 04:00 to 3:10 79.69 79.12 79.33 80.07 81.01 81.05
10/5/2014 03:00 to 2:10 79.78 79.27 79.91 80.69 79.80 79.88
10/5/2014 02:00 to 1:10 80.05 79.63 79.86 79.44 78.78 78.08
10/5/2014 01:00 to 0:10 78.21 77.83 78.61 78.10 77.96 78.48
10/5/2014 00:00 to 23:10 77.85 78.53 78.46 78.70 78.95 78.32
10/4/2014 23:00 to 22:10 78.95 78.55 79.25 80.03 80.96 80.56
10/4/2014 22:00 to 21:10 81.22 81.54 82.00 82.05 81.37 81.43
10/4/2014 21:00 to 20:10 81.28 81.07 82.07 82.24 82.55 82.66
10/4/2014 20:00 to 19:10 81.71 81.16 81.18 81.01 81.52 80.82
10/4/2014 19:00 to 18:10 79.97 80.52 81.52 81.07 81.03 80.92
10/4/2014 18:00 to 17:10 80.60 80.05 80.88 81.05 80.71 80.01
10/4/2014 17:00 to 16:10 79.54 79.40 79.54 79.82 79.59 79.78
10/4/2014 16:00 to 15:10 79.61 79.08 78.87 79.33 79.80 80.14
10/4/2014 15:00 to 14:10 80.31 81.03 82.09 81.69 81.56 81.71
10/4/2014 14:00 to 13:10 81.52 81.39 81.60 81.30 81.33 80.92
10/4/2014 13:00 to 12:10 80.52 79.88 80.46 80.48 81.26 80.99
10/4/2014 12:00 to 11:10 80.39 79.93 80.22 80.84 80.94 79.97
10/4/2014 11:00 to 10:10 80.88 80.82 81.01 80.94 80.50 80.65
10/4/2014 10:00 to 9:10 81.16 81.22 80.18 81.33 80.52 79.99
10/4/2014 09:00 to 8:10 80.33 80.18 80.37 80.92 81.22 81.75
10/4/2014 08:00 to 7:10 81.20 81.35 81.16 80.65 80.75 80.48
10/4/2014 07:00 to 6:10 80.46 80.18 79.86 79.31 79.86 80.33
10/4/2014 06:00 to 5:10 80.39 79.78 79.14 80.07 80.50 80.73
10/4/2014 05:00 to 4:10 81.07 81.05 81.20 80.56 79.57 79.40
10/4/2014 04:00 to 3:10 79.74 81.09 81.13 80.94 80.58 80.67
10/4/2014 03:00 to 2:10 80.65 81.45 82.11 81.81 81.45 81.43
10/4/2014 02:00 to 1:10 80.31 80.07 80.03 79.61 79.44 80.54
10/4/2014 01:00 to 0:10 82.11 81.30 80.41 81.01 81.16 81.39
10/4/2014 00:00 to 23:10 80.56 80.22 80.44 80.20 79.95 80.07
10/3/2014 23:00 to 22:10 80.50 80.24 79.40 79.69 79.57 79.97
10/3/2014 22:00 to 21:10 79.93 80.46 80.16 80.39 80.60 80.03
10/3/2014 21:00 to 20:10 80.82 80.88 80.96 80.50 80.37 79.93
10/3/2014 20:00 to 19:10 79.93 80.52 80.54 80.03 80.01 80.03
10/3/2014 19:00 to 18:10 79.91 80.41 79.84 79.61 79.78 80.29
10/3/2014 18:00 to 17:10 79.63 78.99 78.85 78.40 78.21 78.78
10/3/2014 17:00 to 16:10 78.97 79.25 79.54 80.03 80.12 79.80
10/3/2014 16:00 to 15:10 79.78 78.82 79.01 80.41 80.96 81.09
10/3/2014 15:00 to 14:10 79.91 79.74 80.37 81.86 82.36 81.94
10/3/2014 14:00 to 13:10 82.53 83.15 83.23 81.83 81.39 82.39
10/3/2014 13:00 to 12:10 82.39 83.02 82.53 81.94 82.05 81.88
10/3/2014 12:00 to 11:10 81.98 81.73 82.66 83.00 83.08 82.13
10/3/2014 11:00 to 10:10 82.02 81.94 82.83 82.02 82.22 82.62
10/3/2014 10:00 to 9:10 82.45 82.45 82.70 83.17 82.94 82.39
10/3/2014 09:00 to 8:10 81.98 82.28 82.30 82.41 82.60 82.07
10/3/2014 08:00 to 7:10 82.47 81.98 82.22 82.30 82.62 82.79
10/3/2014 07:00 to 6:10 82.49 81.66 81.75 81.77 82.15 81.81
10/3/2014 06:00 to 5:10 81.43 81.30 81.03 80.35 80.14 80.31
10/3/2014 05:00 to 4:10 80.41 80.01 80.31 80.10 79.67 79.46
10/3/2014 04:00 to 3:10 79.12 80.10 79.80 79.78 80.29 79.35
10/3/2014 03:00 to 2:10 79.57 79.25 78.87 78.06 77.72 78.32
10/3/2014 02:00 to 1:10 78.15 77.47 77.40 78.17 77.76 77.53
10/3/2014 01:00 to 0:10 77.87 77.57 78.40 77.79 78.32 77.68
10/3/2014 00:00 to 23:10 77.74 78.06 78.68 79.29 79.38 78.80
10/2/2014 23:00 to 22:10 78.78 78.27 78.42 78.93 79.16 78.23
10/2/2014 22:00 to 21:10 78.42 78.15 78.27 77.76 77.62 77.74
10/2/2014 21:00 to 20:10 77.36 77.15 77.53 77.89 77.49 77.66
10/2/2014 20:00 to 19:10 78.00 77.49 77.23 77.76 77.13 77.30
10/2/2014 19:00 to 18:10 76.85 77.17 77.21 76.70 77.74 77.59
10/2/2014 18:00 to 17:10 77.59 77.11 76.98 76.70 76.90 77.32
10/2/2014 17:00 to 16:10 75.71 75.56 75.96 75.54 75.73 75.90
10/2/2014 16:00 to 15:10 75.92 75.77 75.96 76.43 76.41 76.26
10/2/2014 15:00 to 14:10 76.58 76.60 76.77 76.58 77.57 78.78
10/2/2014 14:00 to 13:10 80.20 79.74 79.63 79.59 78.10 77.93
10/2/2014 13:00 to 12:10 79.38 78.82 78.87 78.78 79.01 77.89
10/2/2014 12:00 to 11:10 78.68 79.54 79.95 79.78 79.10 78.91
10/2/2014 11:00 to 10:10 79.50 78.34 78.34 77.74 77.47 77.30
10/2/2014 10:00 to 9:10 76.94 76.58 76.49 76.37 76.73 76.43
10/2/2014 09:00 to 8:10 76.15 75.71 75.75 76.00 75.39 75.14
10/2/2014 08:00 to 7:10 74.39 74.20 75.01 74.90 74.35 74.14
10/2/2014 07:00 to 6:10 73.69 73.14 73.82 72.49 72.15 72.36
10/2/2014 06:00 to 5:10 73.25 73.38 73.55 73.80 72.99 73.52
10/2/2014 05:00 to 4:10 72.55 72.78 73.06 73.21 73.19 72.68
10/2/2014 04:00 to 3:10 72.72 71.70 71.38 70.64 69.82 69.37
10/2/2014 03:00 to 2:10 69.22 68.18 69.26 69.29 69.05 70.35
10/2/2014 02:00 to 1:10 68.20 69.92 70.30 70.07 71.36 71.72
10/2/2014 01:00 to 0:10 70.58 71.32 71.45 70.81 70.58 71.60
10/2/2014 00:00 to 23:10 71.51 71.87 70.94 70.43 70.77 70.32
10/1/2014 23:00 to 22:10 71.91 70.73 71.79 71.04 71.47 72.04
10/1/2014 22:00 to 21:10 72.53 72.38 72.30 73.65 72.25 71.45
10/1/2014 21:00 to 20:10 72.72 72.23 71.74 72.53 72.89 72.66
10/1/2014 20:00 to 19:10 71.81 71.87 71.85 71.07 71.04 70.24
10/1/2014 19:00 to 18:10 70.05 69.69 69.09 67.12 67.91 66.32
10/1/2014 18:00 to 17:10 64.77 63.73 63.37 63.60 62.33 62.97
10/1/2014 17:00 to 16:10 61.93 62.59 63.94 65.85 67.78 68.99
10/1/2014 16:00 to 15:10 67.80 67.23 66.17 65.19 64.39 64.22
10/1/2014 15:00 to 14:10 64.56 63.54 64.64 65.89 67.19 67.59
10/1/2014 14:00 to 13:10 68.46 69.01 71.13 72.06 72.99 73.61
10/1/2014 13:00 to 12:10 73.02 72.55 72.40 72.89 71.57 72.19
10/1/2014 12:00 to 11:10 73.33 73.06 73.63 72.74 72.23 72.76
10/1/2014 11:00 to 10:10 73.04 71.89 69.60 71.81 72.61 73.33
10/1/2014 10:00 to 9:10 72.36 72.68 73.48 74.42 74.71 74.65
10/1/2014 09:00 to 8:10 74.29 74.69 74.48 73.67 73.16 73.63
10/1/2014 08:00 to 7:10 73.63 73.19 73.86 73.44 72.40 72.23
10/1/2014 07:00 to 6:10 71.70 70.77 70.75 70.24 72.06 72.17
10/1/2014 06:00 to 5:10 70.83 70.81 72.02 72.44 70.96 70.24
10/1/2014 05:00 to 4:10 69.77 69.43 69.69 70.37 71.94 72.87
10/1/2014 04:00 to 3:10 74.44 74.37 74.20 73.78 73.33 73.04
10/1/2014 03:00 to 2:10 73.40 74.31 72.89 71.41 71.17 71.21
10/1/2014 02:00 to 1:10 70.81 70.64 70.11 69.92 68.86 69.46
10/1/2014 01:00 to 0:10 70.56 72.53 73.23 72.66 72.70 72.40